createdAt,value
2017-04-14T00:00:22.970Z,0
2017-04-14T00:01:03.467Z,0
2017-04-14T00:01:43.949Z,0
2017-04-14T00:02:24.490Z,0
2017-04-14T00:03:04.977Z,0
2017-04-14T00:03:45.449Z,0
2017-04-14T00:04:25.928Z,0
2017-04-14T00:05:06.444Z,0
2017-04-14T00:05:46.917Z,0
2017-04-14T00:06:27.429Z,0
2017-04-14T00:07:07.937Z,0
2017-04-14T00:07:48.445Z,0
2017-04-14T00:08:28.906Z,0
2017-04-14T00:09:09.451Z,0
2017-04-14T00:09:49.873Z,0
2017-04-14T00:10:30.404Z,0
2017-04-14T00:11:10.869Z,0
2017-04-14T00:11:51.330Z,0
2017-04-14T00:12:31.825Z,0
2017-04-14T00:13:12.274Z,0
2017-04-14T00:13:52.777Z,0
2017-04-14T00:14:33.316Z,0
2017-04-14T00:15:13.756Z,0
2017-04-14T00:15:54.222Z,0
2017-04-14T00:16:34.713Z,0
2017-04-14T00:17:15.218Z,0
2017-04-14T00:17:55.674Z,0
2017-04-14T00:18:36.147Z,0
2017-04-14T00:19:16.587Z,0
2017-04-14T00:19:57.092Z,0
2017-04-14T00:20:37.661Z,0
2017-04-14T00:21:18.148Z,0
2017-04-14T00:21:58.666Z,0
2017-04-14T00:22:39.113Z,0
2017-04-14T00:23:19.598Z,0
2017-04-14T00:24:00.117Z,0
2017-04-14T00:24:40.620Z,0
2017-04-14T00:25:21.112Z,0
2017-04-14T00:26:01.562Z,0
2017-04-14T00:26:42.016Z,0
2017-04-14T00:27:22.497Z,0
2017-04-14T00:28:02.976Z,0
2017-04-14T00:28:43.453Z,0
2017-04-14T00:29:23.946Z,0
2017-04-14T00:30:04.448Z,0
2017-04-14T00:30:44.936Z,0
2017-04-14T00:31:25.443Z,0
2017-04-14T00:32:05.883Z,0
2017-04-14T00:32:46.370Z,0
2017-04-14T00:33:26.818Z,0
2017-04-14T00:34:07.296Z,0
2017-04-14T00:34:47.784Z,0
2017-04-14T00:35:28.268Z,0
2017-04-14T00:36:08.809Z,0
2017-04-14T00:36:49.274Z,0
2017-04-14T00:37:29.752Z,0
2017-04-14T00:38:10.242Z,0
2017-04-14T00:38:50.730Z,0
2017-04-14T00:39:31.217Z,0
2017-04-14T00:40:11.676Z,0
2017-04-14T00:40:52.170Z,0
2017-04-14T00:41:32.679Z,0
2017-04-14T00:42:13.168Z,0
2017-04-14T00:42:53.633Z,0
2017-04-14T00:43:34.140Z,0
2017-04-14T00:44:14.609Z,0
2017-04-14T00:44:55.143Z,0
2017-04-14T00:45:35.607Z,0
2017-04-14T00:46:16.072Z,0
2017-04-14T00:46:56.587Z,0
2017-04-14T00:47:37.064Z,0
2017-04-14T00:48:17.560Z,0
2017-04-14T00:48:58.043Z,0
2017-04-14T00:49:38.575Z,0
2017-04-14T00:50:19.042Z,0
2017-04-14T00:50:59.528Z,0
2017-04-14T00:51:40.027Z,0
2017-04-14T00:52:20.479Z,0
2017-04-14T00:53:00.931Z,0
2017-04-14T00:53:41.393Z,0
2017-04-14T00:54:21.894Z,0
2017-04-14T00:55:02.391Z,0
2017-04-14T00:55:42.914Z,0
2017-04-14T00:56:23.398Z,0
2017-04-14T00:57:03.838Z,0
2017-04-14T00:57:44.309Z,0
2017-04-14T00:58:24.822Z,0
2017-04-14T00:59:05.270Z,0
2017-04-14T00:59:45.765Z,0
2017-04-14T01:00:26.256Z,0
2017-04-14T01:01:06.719Z,0
2017-04-14T01:01:47.160Z,0
2017-04-14T01:02:27.691Z,0
2017-04-14T01:03:08.216Z,0
2017-04-14T01:03:48.701Z,0
2017-04-14T01:04:29.209Z,0
2017-04-14T01:05:09.645Z,0
2017-04-14T01:05:50.127Z,0
2017-04-14T01:06:30.609Z,0
2017-04-14T01:07:11.116Z,0
2017-04-14T01:07:51.556Z,0
2017-04-14T01:08:32.069Z,0
2017-04-14T01:09:12.567Z,0
2017-04-14T01:09:53.027Z,0
2017-04-14T01:10:33.543Z,0
2017-04-14T01:11:14.015Z,0
2017-04-14T01:11:54.511Z,0
2017-04-14T01:12:34.970Z,0
2017-04-14T01:13:15.434Z,0
2017-04-14T01:13:55.917Z,0
2017-04-14T01:14:36.397Z,0
2017-04-14T01:15:16.870Z,0
2017-04-14T01:15:57.369Z,0
2017-04-14T01:16:37.921Z,0
2017-04-14T01:17:18.358Z,0
2017-04-14T01:17:58.833Z,0
2017-04-14T01:18:39.325Z,0
2017-04-14T01:19:19.800Z,0
2017-04-14T01:20:00.269Z,0
2017-04-14T01:20:40.751Z,0
2017-04-14T01:21:21.292Z,0
2017-04-14T01:22:01.727Z,0
2017-04-14T01:22:44.197Z,0
2017-04-14T01:23:24.699Z,0
2017-04-14T01:24:05.141Z,0
2017-04-14T01:24:45.642Z,0
2017-04-14T01:25:26.111Z,0
2017-04-14T01:26:06.593Z,0
2017-04-14T01:26:47.104Z,0
2017-04-14T01:27:27.663Z,0
2017-04-14T01:28:08.275Z,0
2017-04-14T01:28:48.713Z,0
2017-04-14T01:29:29.202Z,0
2017-04-14T01:30:09.701Z,0
2017-04-14T01:30:50.156Z,0
2017-04-14T01:31:30.657Z,0
2017-04-14T01:32:11.124Z,0
2017-04-14T01:32:51.606Z,0
2017-04-14T01:33:32.085Z,0
2017-04-14T01:34:12.610Z,0
2017-04-14T01:34:53.056Z,0
2017-04-14T01:35:33.550Z,0
2017-04-14T01:36:14.041Z,0
2017-04-14T01:36:54.527Z,0
2017-04-14T01:37:35.003Z,0
2017-04-14T01:38:15.482Z,0
2017-04-14T01:38:56.008Z,0
2017-04-14T01:39:36.478Z,0
2017-04-14T01:40:16.987Z,0
2017-04-14T01:40:57.519Z,0
2017-04-14T01:41:38.025Z,0
2017-04-14T01:42:18.501Z,0
2017-04-14T01:42:59.011Z,0
2017-04-14T01:43:39.487Z,0
2017-04-14T01:44:20.003Z,0
2017-04-14T01:45:00.448Z,0
2017-04-14T01:45:40.924Z,0
2017-04-14T01:46:21.391Z,0
2017-04-14T01:47:01.887Z,0
2017-04-14T01:47:42.362Z,0
2017-04-14T01:48:22.896Z,0
2017-04-14T01:49:03.381Z,0
2017-04-14T01:49:43.857Z,0
2017-04-14T01:50:24.365Z,0
2017-04-14T01:51:04.857Z,0
2017-04-14T01:51:45.319Z,0
2017-04-14T01:52:25.795Z,0
2017-04-14T01:53:06.298Z,0
2017-04-14T01:53:46.788Z,0
2017-04-14T01:54:27.303Z,0
2017-04-14T01:55:07.786Z,0
2017-04-14T01:55:48.321Z,0
2017-04-14T01:56:28.823Z,0
2017-04-14T01:57:09.329Z,0
2017-04-14T01:57:49.817Z,0
2017-04-14T01:58:30.344Z,0
2017-04-14T01:59:10.824Z,0
2017-04-14T01:59:51.298Z,0
2017-04-14T02:00:31.836Z,0
2017-04-14T02:01:12.282Z,0
2017-04-14T02:01:52.798Z,0
2017-04-14T02:02:33.257Z,0
2017-04-14T02:03:13.743Z,0
2017-04-14T02:03:54.266Z,0
2017-04-14T02:04:34.766Z,0
2017-04-14T02:05:15.205Z,0
2017-04-14T02:05:55.670Z,0
2017-04-14T02:06:36.143Z,0
2017-04-14T02:07:16.626Z,0
2017-04-14T02:07:57.108Z,0
2017-04-14T02:08:37.607Z,0
2017-04-14T02:09:18.117Z,0
2017-04-14T02:09:58.732Z,0
2017-04-14T02:10:39.210Z,0
2017-04-14T02:11:19.716Z,0
2017-04-14T02:12:00.184Z,0
2017-04-14T02:12:40.669Z,0
2017-04-14T02:13:21.123Z,0
2017-04-14T02:14:01.616Z,0
2017-04-14T02:14:42.117Z,0
2017-04-14T02:15:22.607Z,0
2017-04-14T02:16:03.076Z,0
2017-04-14T02:16:43.581Z,0
2017-04-14T02:17:24.061Z,0
2017-04-14T02:18:04.502Z,0
2017-04-14T02:18:44.995Z,0
2017-04-14T02:19:25.486Z,0
2017-04-14T02:20:05.970Z,0
2017-04-14T02:20:46.451Z,0
2017-04-14T02:21:26.945Z,0
2017-04-14T02:22:07.460Z,0
2017-04-14T02:22:47.973Z,0
2017-04-14T02:23:28.474Z,0
2017-04-14T02:24:08.973Z,0
2017-04-14T02:24:49.437Z,0
2017-04-14T02:25:29.915Z,0
2017-04-14T02:26:10.396Z,0
2017-04-14T02:26:50.915Z,0
2017-04-14T02:27:31.390Z,0
2017-04-14T02:28:11.863Z,0
2017-04-14T02:28:52.334Z,0
2017-04-14T02:29:32.848Z,0
2017-04-14T02:30:13.320Z,0
2017-04-14T02:30:53.813Z,0
2017-04-14T02:31:34.301Z,0
2017-04-14T02:32:14.786Z,0
2017-04-14T02:32:55.276Z,0
2017-04-14T02:33:35.859Z,0
2017-04-14T02:34:16.325Z,0
2017-04-14T02:34:56.788Z,0
2017-04-14T02:35:37.286Z,0
2017-04-14T02:36:17.814Z,0
2017-04-14T02:36:58.301Z,0
2017-04-14T02:37:38.814Z,0
2017-04-14T02:38:19.367Z,0
2017-04-14T02:38:59.815Z,0
2017-04-14T02:39:40.269Z,0
2017-04-14T02:40:20.788Z,0
2017-04-14T02:41:01.268Z,0
2017-04-14T02:41:41.741Z,0
2017-04-14T02:42:22.202Z,0
2017-04-14T02:43:02.785Z,0
2017-04-14T02:43:43.261Z,0
2017-04-14T02:44:23.719Z,0
2017-04-14T02:45:04.214Z,0
2017-04-14T02:45:44.705Z,0
2017-04-14T02:46:25.192Z,0
2017-04-14T02:47:05.713Z,0
2017-04-14T02:47:46.186Z,0
2017-04-14T02:48:26.688Z,0
2017-04-14T02:49:07.167Z,0
2017-04-14T02:49:47.686Z,0
2017-04-14T02:50:28.196Z,0
2017-04-14T02:51:08.704Z,0
2017-04-14T02:51:49.228Z,0
2017-04-14T02:52:29.736Z,0
2017-04-14T02:53:10.227Z,0
2017-04-14T02:53:50.711Z,0
2017-04-14T02:54:31.183Z,0
2017-04-14T02:55:11.666Z,0
2017-04-14T02:55:52.117Z,0
2017-04-14T02:56:32.666Z,0
2017-04-14T02:57:13.137Z,0
2017-04-14T02:57:53.623Z,0
2017-04-14T02:58:34.092Z,0
2017-04-14T02:59:14.606Z,0
2017-04-14T02:59:55.081Z,0
2017-04-14T03:00:35.585Z,0
2017-04-14T03:01:16.075Z,0
2017-04-14T03:01:56.567Z,0
2017-04-14T03:02:37.062Z,0
2017-04-14T03:03:17.537Z,0
2017-04-14T03:03:58.094Z,0
2017-04-14T03:04:38.564Z,0
2017-04-14T03:05:19.063Z,0
2017-04-14T03:05:59.523Z,0
2017-04-14T03:06:40.046Z,0
2017-04-14T03:07:20.555Z,0
2017-04-14T03:08:01.048Z,0
2017-04-14T03:08:41.528Z,0
2017-04-14T03:09:22.021Z,0
2017-04-14T03:10:02.533Z,0
2017-04-14T03:10:43.018Z,0
2017-04-14T03:11:23.479Z,0
2017-04-14T03:12:03.973Z,0
2017-04-14T03:12:44.461Z,0
2017-04-14T03:13:24.937Z,0
2017-04-14T03:14:05.419Z,0
2017-04-14T03:14:45.921Z,0
2017-04-14T03:15:26.391Z,0
2017-04-14T03:16:06.886Z,0
2017-04-14T03:16:47.350Z,0
2017-04-14T03:17:27.870Z,0
2017-04-14T03:18:08.365Z,0
2017-04-14T03:20:36.804Z,0
2017-04-14T03:21:17.241Z,0
2017-04-14T03:21:57.712Z,0
2017-04-14T03:22:38.185Z,0
2017-04-14T03:23:18.710Z,0
2017-04-14T03:23:59.206Z,0
2017-04-14T03:24:39.724Z,0
2017-04-14T03:25:20.199Z,0
2017-04-14T03:26:00.685Z,0
2017-04-14T03:26:41.136Z,0
2017-04-14T03:27:21.627Z,0
2017-04-14T03:28:02.114Z,0
2017-04-14T03:28:42.683Z,0
2017-04-14T03:29:23.110Z,0
2017-04-14T03:30:03.589Z,0
2017-04-14T03:30:44.087Z,0
2017-04-14T03:31:24.598Z,0
2017-04-14T03:32:05.091Z,0
2017-04-14T03:32:45.632Z,0
2017-04-14T03:33:26.054Z,0
2017-04-14T03:34:06.520Z,0
2017-04-14T03:34:47.016Z,0
2017-04-14T03:35:27.468Z,0
2017-04-14T03:36:07.965Z,0
2017-04-14T03:36:48.462Z,0
2017-04-14T03:37:28.931Z,0
2017-04-14T03:38:09.439Z,0
2017-04-14T03:38:49.884Z,0
2017-04-14T03:39:30.354Z,0
2017-04-14T03:40:10.844Z,0
2017-04-14T03:40:51.371Z,0
2017-04-14T03:41:31.863Z,0
2017-04-14T03:42:12.341Z,0
2017-04-14T03:42:52.842Z,0
2017-04-14T03:43:33.338Z,0
2017-04-14T03:44:13.805Z,0
2017-04-14T03:44:54.323Z,0
2017-04-14T03:45:34.782Z,0
2017-04-14T03:46:15.279Z,0
2017-04-14T03:46:55.763Z,0
2017-04-14T03:47:36.221Z,0
2017-04-14T03:48:16.714Z,0
2017-04-14T03:48:57.189Z,0
2017-04-14T03:49:37.706Z,0
2017-04-14T03:50:18.216Z,0
2017-04-14T03:50:58.696Z,0
2017-04-14T03:51:39.178Z,0
2017-04-14T03:52:19.646Z,0
2017-04-14T03:53:00.120Z,0
2017-04-14T03:53:40.613Z,0
2017-04-14T03:54:21.078Z,0
2017-04-14T03:55:01.574Z,0
2017-04-14T03:55:42.056Z,0
2017-04-14T03:58:00.392Z,0
2017-04-14T03:58:40.825Z,0
2017-04-14T03:59:21.298Z,0
2017-04-14T04:00:01.786Z,0
2017-04-14T04:00:42.231Z,0
2017-04-14T04:01:22.725Z,0
2017-04-14T04:02:03.188Z,0
2017-04-14T04:02:43.689Z,0
2017-04-14T04:03:24.145Z,0
2017-04-14T04:04:04.601Z,0
2017-04-14T04:04:45.090Z,0
2017-04-14T04:05:25.558Z,0
2017-04-14T04:06:06.038Z,0
2017-04-14T04:06:46.502Z,0
2017-04-14T04:07:27.030Z,0
2017-04-14T04:08:07.494Z,0
2017-04-14T04:08:48.014Z,0
2017-04-14T04:09:28.512Z,0
2017-04-14T04:10:09.077Z,0
2017-04-14T04:10:49.578Z,0
2017-04-14T04:11:30.084Z,0
2017-04-14T04:12:10.582Z,0
2017-04-14T04:12:51.038Z,0
2017-04-14T04:13:31.527Z,0
2017-04-14T04:14:12.016Z,0
2017-04-14T04:14:52.473Z,0
2017-04-14T04:15:32.978Z,0
2017-04-14T04:16:13.456Z,0
2017-04-14T04:16:53.914Z,0
2017-04-14T04:17:34.416Z,0
2017-04-14T04:18:14.900Z,0
2017-04-14T04:18:55.389Z,0
2017-04-14T04:19:35.823Z,0
2017-04-14T04:20:16.316Z,0
2017-04-14T04:20:56.833Z,0
2017-04-14T04:21:37.287Z,5
2017-04-14T04:22:17.806Z,5
2017-04-14T04:22:58.283Z,5
2017-04-14T04:23:38.755Z,5
2017-04-14T04:24:19.266Z,5
2017-04-14T04:24:59.736Z,5
2017-04-14T04:25:40.217Z,5
2017-04-14T04:26:20.727Z,5
2017-04-14T04:27:01.180Z,5
2017-04-14T04:27:41.694Z,10
2017-04-14T04:28:22.162Z,10
2017-04-14T04:29:02.650Z,10
2017-04-14T04:29:43.146Z,10
2017-04-14T04:30:23.684Z,10
2017-04-14T04:31:04.145Z,10
2017-04-14T04:31:44.612Z,15
2017-04-14T04:32:25.088Z,15
2017-04-14T04:33:05.563Z,15
2017-04-14T04:33:46.060Z,15
2017-04-14T04:34:26.550Z,15
2017-04-14T04:35:07.019Z,15
2017-04-14T04:35:47.473Z,20
2017-04-14T04:36:27.992Z,20
2017-04-14T04:37:08.474Z,20
2017-04-14T04:37:48.962Z,20
2017-04-14T04:38:29.484Z,20
2017-04-14T04:39:09.959Z,25
2017-04-14T04:39:50.476Z,25
2017-04-14T04:40:30.953Z,25
2017-04-14T04:41:11.405Z,25
2017-04-14T04:41:51.880Z,25
2017-04-14T04:42:32.390Z,25
2017-04-14T04:43:12.893Z,30
2017-04-14T04:43:53.392Z,30
2017-04-14T04:44:33.897Z,30
2017-04-14T04:45:14.364Z,30
2017-04-14T04:45:54.840Z,30
2017-04-14T04:46:35.341Z,30
2017-04-14T04:47:15.888Z,35
2017-04-14T04:47:56.305Z,35
2017-04-14T04:48:36.770Z,35
2017-04-14T04:49:17.281Z,35
2017-04-14T04:49:57.782Z,35
2017-04-14T04:50:38.240Z,35
2017-04-14T04:51:18.735Z,35
2017-04-14T04:51:59.202Z,40
2017-04-14T04:52:39.716Z,40
2017-04-14T04:53:20.240Z,40
2017-04-14T04:54:00.727Z,40
2017-04-14T04:54:41.230Z,40
2017-04-14T04:55:21.741Z,45
2017-04-14T04:56:02.196Z,45
2017-04-14T04:56:42.711Z,45
2017-04-14T04:57:23.254Z,50
2017-04-14T04:58:03.728Z,50
2017-04-14T04:58:44.233Z,50
2017-04-14T04:59:24.728Z,50
2017-04-14T05:00:05.214Z,50
2017-04-14T05:00:45.698Z,50
2017-04-14T05:01:26.187Z,50
2017-04-14T05:02:06.645Z,55
2017-04-14T05:02:47.134Z,55
2017-04-14T05:03:27.594Z,55
2017-04-14T05:04:08.082Z,55
2017-04-14T05:04:48.550Z,55
2017-04-14T05:05:29.077Z,55
2017-04-14T05:06:09.528Z,60
2017-04-14T05:06:50.020Z,60
2017-04-14T05:07:30.519Z,65
2017-04-14T05:08:11.036Z,65
2017-04-14T05:08:53.414Z,65
2017-04-14T05:09:33.909Z,65
2017-04-14T05:10:14.377Z,65
2017-04-14T05:10:54.887Z,65
2017-04-14T05:11:35.404Z,65
2017-04-14T05:12:15.867Z,65
2017-04-14T05:12:56.384Z,70
2017-04-14T05:13:36.848Z,70
2017-04-14T05:14:17.335Z,75
2017-04-14T05:14:57.833Z,85
2017-04-14T05:15:38.301Z,80
2017-04-14T05:16:18.782Z,80
2017-04-14T05:16:59.251Z,80
2017-04-14T05:17:39.739Z,75
2017-04-14T05:18:20.214Z,75
2017-04-14T05:19:00.698Z,60
2017-04-14T05:19:41.174Z,55
2017-04-14T05:20:21.696Z,55
2017-04-14T05:21:02.151Z,55
2017-04-14T05:21:42.617Z,60
2017-04-14T05:22:23.178Z,65
2017-04-14T05:23:03.671Z,75
2017-04-14T05:23:44.155Z,75
2017-04-14T05:24:24.638Z,80
2017-04-14T05:25:05.106Z,90
2017-04-14T05:25:45.605Z,95
2017-04-14T05:26:26.091Z,95
2017-04-14T05:27:06.573Z,90
2017-04-14T05:27:47.073Z,80
2017-04-14T05:28:27.539Z,60
2017-04-14T05:29:08.038Z,50
2017-04-14T05:29:48.532Z,50
2017-04-14T05:30:29.013Z,45
2017-04-14T05:31:09.495Z,40
2017-04-14T05:31:49.999Z,40
2017-04-14T05:32:30.483Z,40
2017-04-14T05:33:10.983Z,40
2017-04-14T05:33:51.505Z,40
2017-04-14T05:34:31.967Z,35
2017-04-14T05:35:12.490Z,35
2017-04-14T05:35:53.034Z,35
2017-04-14T05:36:33.485Z,35
2017-04-14T05:37:13.964Z,30
2017-04-14T05:37:54.462Z,25
2017-04-14T05:38:34.968Z,30
2017-04-14T05:39:15.481Z,35
2017-04-14T05:39:55.934Z,35
2017-04-14T05:40:36.419Z,30
2017-04-14T05:41:16.944Z,35
2017-04-14T05:41:57.388Z,40
2017-04-14T05:42:37.913Z,45
2017-04-14T05:43:18.443Z,45
2017-04-14T05:43:59.050Z,45
2017-04-14T05:44:39.396Z,45
2017-04-14T05:45:19.902Z,45
2017-04-14T05:46:00.363Z,55
2017-04-14T05:46:40.831Z,55
2017-04-14T05:47:21.333Z,60
2017-04-14T05:48:01.832Z,60
2017-04-14T05:48:42.321Z,65
2017-04-14T05:49:22.854Z,75
2017-04-14T05:50:03.324Z,75
2017-04-14T05:50:43.794Z,80
2017-04-14T05:51:24.264Z,80
2017-04-14T05:52:04.707Z,80
2017-04-14T05:52:45.199Z,85
2017-04-14T05:53:25.692Z,90
2017-04-14T05:54:06.178Z,95
2017-04-14T05:54:46.639Z,95
2017-04-14T05:55:27.111Z,95
2017-04-14T05:56:07.593Z,100
2017-04-14T05:56:48.089Z,100
2017-04-14T05:57:28.591Z,100
2017-04-14T05:58:09.195Z,105
2017-04-14T05:58:49.676Z,100
2017-04-14T05:59:30.171Z,100
2017-04-14T06:00:10.692Z,100
2017-04-14T06:00:51.194Z,95
2017-04-14T06:01:31.727Z,95
2017-04-14T06:02:12.186Z,95
2017-04-14T06:02:52.675Z,95
2017-04-14T06:03:33.225Z,95
2017-04-14T06:04:13.755Z,90
2017-04-14T06:04:54.187Z,85
2017-04-14T06:05:34.681Z,75
2017-04-14T06:06:15.165Z,70
2017-04-14T06:06:55.680Z,70
2017-04-14T06:07:36.187Z,70
2017-04-14T06:08:16.640Z,70
2017-04-14T06:08:57.127Z,75
2017-04-14T06:11:31.615Z,100
2017-04-14T06:12:12.100Z,100
2017-04-14T06:12:52.599Z,100
2017-04-14T06:13:33.103Z,100
2017-04-14T06:14:13.579Z,105
2017-04-14T06:14:54.045Z,110
2017-04-14T06:15:34.532Z,120
2017-04-14T06:16:15.041Z,125
2017-04-14T06:16:55.514Z,120
2017-04-14T06:17:36.014Z,120
2017-04-14T06:18:16.528Z,120
2017-04-14T06:18:57.011Z,115
2017-04-14T06:19:37.504Z,110
2017-04-14T06:20:18.065Z,105
2017-04-14T06:20:58.540Z,95
2017-04-14T06:21:39.023Z,90
2017-04-14T06:22:19.473Z,85
2017-04-14T06:22:59.969Z,90
2017-04-14T06:23:40.445Z,95
2017-04-14T06:24:20.920Z,95
2017-04-14T06:25:01.401Z,95
2017-04-14T06:25:41.881Z,100
2017-04-14T06:26:22.347Z,100
2017-04-14T06:27:02.826Z,100
2017-04-14T06:27:43.347Z,105
2017-04-14T06:28:23.835Z,115
2017-04-14T06:29:04.347Z,120
2017-04-14T06:29:44.826Z,115
2017-04-14T06:30:25.313Z,100
2017-04-14T06:31:05.820Z,90
2017-04-14T06:31:46.319Z,85
2017-04-14T06:32:26.805Z,85
2017-04-14T06:33:07.291Z,80
2017-04-14T06:33:47.783Z,70
2017-04-14T06:34:28.264Z,65
2017-04-14T06:35:08.717Z,70
2017-04-14T06:35:49.207Z,75
2017-04-14T06:36:29.724Z,85
2017-04-14T06:37:10.177Z,105
2017-04-14T06:37:50.655Z,115
2017-04-14T06:38:31.172Z,120
2017-04-14T06:39:11.619Z,105
2017-04-14T06:39:52.135Z,85
2017-04-14T06:40:32.576Z,70
2017-04-14T06:41:13.078Z,60
2017-04-14T06:41:53.570Z,60
2017-04-14T06:42:34.073Z,55
2017-04-14T06:43:14.569Z,50
2017-04-14T06:43:55.036Z,45
2017-04-14T06:44:35.515Z,50
2017-04-14T06:45:16.027Z,60
2017-04-14T06:45:56.499Z,65
2017-04-14T06:46:36.997Z,80
2017-04-14T06:47:17.475Z,105
2017-04-14T06:47:57.961Z,125
2017-04-14T06:48:38.486Z,130
2017-04-14T06:49:19.022Z,135
2017-04-14T06:49:59.515Z,140
2017-04-14T06:50:40.006Z,145
2017-04-14T06:51:20.513Z,160
2017-04-14T06:52:01.026Z,165
2017-04-14T06:52:41.464Z,170
2017-04-14T06:53:21.966Z,175
2017-04-14T06:54:02.459Z,175
2017-04-14T06:54:42.969Z,175
2017-04-14T06:55:23.452Z,180
2017-04-14T06:56:03.919Z,180
2017-04-14T06:56:44.439Z,185
2017-04-14T06:57:24.921Z,180
2017-04-14T06:58:05.406Z,175
2017-04-14T06:58:45.865Z,165
2017-04-14T06:59:26.373Z,165
2017-04-14T07:00:06.870Z,170
2017-04-14T07:00:47.348Z,170
2017-04-14T07:01:27.843Z,165
2017-04-14T07:02:08.359Z,165
2017-04-14T07:02:48.828Z,165
2017-04-14T07:03:29.302Z,160
2017-04-14T07:04:09.799Z,160
2017-04-14T07:04:50.241Z,165
2017-04-14T07:05:30.765Z,170
2017-04-14T07:06:11.253Z,170
2017-04-14T07:06:51.763Z,170
2017-04-14T07:07:32.230Z,175
2017-04-14T07:08:12.715Z,200
2017-04-14T07:08:53.198Z,205
2017-04-14T07:09:33.686Z,200
2017-04-14T07:10:14.156Z,210
2017-04-14T07:10:54.598Z,225
2017-04-14T07:11:35.104Z,240
2017-04-14T07:12:15.600Z,240
2017-04-14T07:12:56.064Z,235
2017-04-14T07:13:36.565Z,245
2017-04-14T07:14:17.033Z,250
2017-04-14T07:14:57.518Z,255
2017-04-14T07:15:38.028Z,255
2017-04-14T07:16:18.571Z,255
2017-04-14T07:16:59.045Z,245
2017-04-14T07:17:39.505Z,255
2017-04-14T07:18:19.983Z,255
2017-04-14T07:19:00.491Z,260
2017-04-14T07:19:40.958Z,255
2017-04-14T07:20:21.429Z,260
2017-04-14T07:21:01.891Z,260
2017-04-14T07:21:42.358Z,250
2017-04-14T07:22:22.837Z,235
2017-04-14T07:23:03.390Z,250
2017-04-14T07:23:43.878Z,255
2017-04-14T07:24:24.366Z,260
2017-04-14T07:25:19.511Z,265
2017-04-14T07:25:59.989Z,265
2017-04-14T07:26:40.459Z,250
2017-04-14T07:27:20.964Z,225
2017-04-14T07:28:01.409Z,225
2017-04-14T07:28:41.896Z,240
2017-04-14T07:29:22.369Z,220
2017-04-14T07:30:02.857Z,240
2017-04-14T07:30:43.391Z,280
2017-04-14T07:31:23.884Z,245
2017-04-14T07:32:04.365Z,250
2017-04-14T07:32:44.856Z,260
2017-04-14T07:33:25.364Z,230
2017-04-14T07:34:05.842Z,200
2017-04-14T07:34:46.293Z,210
2017-04-14T07:35:26.834Z,220
2017-04-14T07:36:07.330Z,225
2017-04-14T07:36:47.835Z,245
2017-04-14T07:37:28.374Z,250
2017-04-14T07:38:08.860Z,260
2017-04-14T07:38:49.331Z,270
2017-04-14T07:39:29.808Z,290
2017-04-14T07:40:10.352Z,300
2017-04-14T07:40:50.814Z,265
2017-04-14T07:41:31.343Z,280
2017-04-14T07:42:11.863Z,300
2017-04-14T07:42:52.343Z,280
2017-04-14T07:43:32.809Z,285
2017-04-14T07:44:13.312Z,305
2017-04-14T07:44:53.774Z,290
2017-04-14T07:45:34.272Z,290
2017-04-14T07:46:14.757Z,285
2017-04-14T07:46:55.276Z,270
2017-04-14T07:47:35.796Z,270
2017-04-14T07:48:16.289Z,260
2017-04-14T07:48:56.773Z,280
2017-04-14T07:49:37.227Z,250
2017-04-14T07:50:17.694Z,275
2017-04-14T07:50:58.215Z,260
2017-04-14T07:51:38.671Z,270
2017-04-14T07:52:19.161Z,275
2017-04-14T07:52:59.624Z,260
2017-04-14T07:53:40.090Z,260
2017-04-14T07:54:20.559Z,300
2017-04-14T07:55:01.063Z,295
2017-04-14T07:55:41.560Z,270
2017-04-14T07:56:22.070Z,300
2017-04-14T07:57:02.583Z,300
2017-04-14T07:57:43.099Z,280
2017-04-14T07:58:23.610Z,235
2017-04-14T07:59:04.124Z,245
2017-04-14T07:59:44.671Z,215
2017-04-14T08:00:25.126Z,225
2017-04-14T08:01:05.633Z,260
2017-04-14T08:01:46.134Z,300
2017-04-14T08:02:29.534Z,285
2017-04-14T08:03:10.028Z,280
2017-04-14T08:03:50.531Z,295
2017-04-14T08:04:31.013Z,345
2017-04-14T08:05:11.531Z,350
2017-04-14T08:05:52.021Z,355
2017-04-14T08:06:32.484Z,325
2017-04-14T08:07:12.977Z,340
2017-04-14T08:07:53.497Z,340
2017-04-14T08:08:34.053Z,310
2017-04-14T08:09:14.473Z,335
2017-04-14T08:09:54.942Z,350
2017-04-14T08:10:35.406Z,340
2017-04-14T08:11:15.949Z,335
2017-04-14T08:11:56.535Z,370
2017-04-14T08:12:36.904Z,325
2017-04-14T08:13:17.402Z,335
2017-04-14T08:13:57.897Z,345
2017-04-14T08:14:38.468Z,325
2017-04-14T08:15:18.953Z,350
2017-04-14T08:15:59.449Z,335
2017-04-14T08:16:40.029Z,360
2017-04-14T08:17:20.486Z,350
2017-04-14T08:18:00.945Z,305
2017-04-14T08:18:41.471Z,370
2017-04-14T08:19:21.941Z,355
2017-04-14T08:20:02.429Z,330
2017-04-14T08:20:42.919Z,305
2017-04-14T08:21:23.520Z,330
2017-04-14T08:22:04.001Z,360
2017-04-14T08:22:44.507Z,350
2017-04-14T08:23:24.950Z,340
2017-04-14T08:24:05.510Z,320
2017-04-14T08:24:45.954Z,350
2017-04-14T08:25:26.431Z,365
2017-04-14T08:26:06.913Z,360
2017-04-14T08:26:47.367Z,350
2017-04-14T08:27:27.901Z,420
2017-04-14T08:28:08.387Z,380
2017-04-14T08:28:48.861Z,335
2017-04-14T08:29:29.334Z,375
2017-04-14T08:30:09.846Z,350
2017-04-14T08:30:50.318Z,315
2017-04-14T08:31:30.829Z,360
2017-04-14T08:32:11.362Z,340
2017-04-14T08:32:51.818Z,320
2017-04-14T08:33:32.384Z,350
2017-04-14T08:34:12.845Z,390
2017-04-14T08:34:53.361Z,415
2017-04-14T08:35:33.845Z,390
2017-04-14T08:36:14.322Z,335
2017-04-14T08:36:54.788Z,320
2017-04-14T08:37:35.280Z,310
2017-04-14T08:38:15.764Z,305
2017-04-14T08:38:56.235Z,310
2017-04-14T08:39:36.750Z,285
2017-04-14T08:40:17.254Z,295
2017-04-14T08:40:57.750Z,355
2017-04-14T08:41:38.246Z,330
2017-04-14T08:42:18.709Z,360
2017-04-14T08:42:59.184Z,320
2017-04-14T08:45:12.413Z,340
2017-04-14T08:45:52.919Z,400
2017-04-14T08:46:33.425Z,470
2017-04-14T08:47:13.911Z,385
2017-04-14T08:47:54.433Z,385
2017-04-14T08:48:34.886Z,425
2017-04-14T08:49:15.379Z,395
2017-04-14T08:49:55.872Z,370
2017-04-14T08:50:36.355Z,380
2017-04-14T08:51:16.833Z,345
2017-04-14T08:51:57.308Z,340
2017-04-14T08:52:37.870Z,350
2017-04-14T08:53:18.345Z,370
2017-04-14T08:53:58.850Z,360
2017-04-14T08:54:39.342Z,355
2017-04-14T08:55:19.872Z,420
2017-04-14T08:56:00.350Z,415
2017-04-14T08:56:40.867Z,400
2017-04-14T08:57:21.346Z,445
2017-04-14T08:58:01.838Z,460
2017-04-14T08:58:42.314Z,510
2017-04-14T08:59:22.795Z,425
2017-04-14T09:00:03.303Z,390
2017-04-14T09:00:43.781Z,380
2017-04-14T09:01:24.255Z,390
2017-04-14T09:02:04.747Z,355
2017-04-14T09:04:33.356Z,385
2017-04-14T09:05:13.952Z,425
2017-04-14T09:05:54.496Z,395
2017-04-14T09:06:34.990Z,390
2017-04-14T09:07:15.496Z,430
2017-04-14T09:07:55.986Z,355
2017-04-14T09:08:36.478Z,430
2017-04-14T09:09:16.967Z,475
2017-04-14T09:09:57.543Z,475
2017-04-14T09:10:37.999Z,500
2017-04-14T09:11:18.504Z,525
2017-04-14T09:11:59.024Z,470
2017-04-14T09:12:39.497Z,375
2017-04-14T09:13:19.994Z,405
2017-04-14T09:14:00.452Z,445
2017-04-14T09:14:40.948Z,445
2017-04-14T09:15:21.454Z,490
2017-04-14T09:16:02.030Z,445
2017-04-14T09:16:42.498Z,450
2017-04-14T09:17:23.028Z,515
2017-04-14T09:18:03.531Z,510
2017-04-14T09:18:44.032Z,550
2017-04-14T09:19:24.533Z,470
2017-04-14T09:20:05.010Z,495
2017-04-14T09:20:45.512Z,490
2017-04-14T09:21:25.981Z,430
2017-04-14T09:22:06.436Z,450
2017-04-14T09:22:46.932Z,415
2017-04-14T09:23:27.443Z,515
2017-04-14T09:24:07.916Z,410
2017-04-14T09:24:48.525Z,480
2017-04-14T09:25:28.986Z,460
2017-04-14T09:26:09.501Z,445
2017-04-14T09:26:49.981Z,365
2017-04-14T09:27:30.449Z,380
2017-04-14T09:28:10.989Z,400
2017-04-14T09:28:51.472Z,430
2017-04-14T09:29:31.946Z,465
2017-04-14T09:30:12.444Z,470
2017-04-14T09:30:52.929Z,450
2017-04-14T09:31:33.397Z,465
2017-04-14T09:32:13.888Z,490
2017-04-14T09:32:54.397Z,470
2017-04-14T09:33:34.877Z,535
2017-04-14T09:34:15.371Z,470
2017-04-14T09:34:55.890Z,485
2017-04-14T09:35:36.339Z,475
2017-04-14T09:36:16.855Z,455
2017-04-14T09:36:57.316Z,490
2017-04-14T09:37:37.805Z,525
2017-04-14T09:38:18.319Z,565
2017-04-14T09:39:05.678Z,550
2017-04-14T09:39:46.161Z,550
2017-04-14T09:40:26.655Z,555
2017-04-14T09:41:07.175Z,550
2017-04-14T09:41:47.630Z,620
2017-04-14T09:42:28.189Z,630
2017-04-14T09:43:08.632Z,480
2017-04-14T09:43:49.156Z,465
2017-04-14T09:44:29.608Z,390
2017-04-14T09:45:10.131Z,450
2017-04-14T09:45:50.631Z,450
2017-04-14T09:46:31.091Z,370
2017-04-14T09:47:11.627Z,380
2017-04-14T09:47:52.102Z,455
2017-04-14T09:48:32.620Z,520